createdAt,value
2023-01-06T00:02:29.369Z,3.65
2023-01-06T00:05:07.806Z,4.45
2023-01-06T00:07:41.451Z,4.53
2023-01-06T00:10:10.839Z,3.55
2023-01-06T00:12:40.112Z,4.15
2023-01-06T00:15:09.310Z,4.25
2023-01-06T00:17:39.169Z,5.07
2023-01-06T00:20:08.809Z,3.53
2023-01-06T00:22:48.305Z,4.18
2023-01-06T00:25:18.419Z,4.85
2023-01-06T00:27:48.489Z,4.75
2023-01-06T00:30:22.028Z,5.25
2023-01-06T00:32:54.031Z,4.40
2023-01-06T00:38:18.661Z,4.40
2023-01-06T00:40:47.162Z,4.50
2023-01-06T00:43:15.319Z,4.90
2023-01-06T00:45:43.763Z,6.00
2023-01-06T00:48:45.086Z,4.30
2023-01-06T00:55:23.019Z,4.85
2023-01-06T01:01:09.614Z,5.05
2023-01-06T01:03:53.268Z,6.88
2023-01-06T01:06:33.090Z,5.97
2023-01-06T01:09:12.208Z,6.78
2023-01-06T01:12:14.333Z,7.07
2023-01-06T01:14:49.067Z,5.55
2023-01-06T01:17:26.533Z,6.93
2023-01-06T01:20:19.340Z,7.18
2023-01-06T01:23:04.347Z,5.20
2023-01-06T01:28:57.856Z,4.78
2023-01-06T01:37:03.574Z,9.60
2023-01-06T01:39:34.181Z,7.55
2023-01-06T01:42:02.504Z,6.25
2023-01-06T01:44:57.977Z,8.00
2023-01-06T01:47:31.737Z,9.00
2023-01-06T01:50:04.523Z,5.78
2023-01-06T01:52:34.848Z,9.55
2023-01-06T01:55:04.140Z,9.15
2023-01-06T01:57:36.679Z,7.32
2023-01-06T02:00:10.112Z,9.00
2023-01-06T02:02:39.438Z,7.40
2023-01-06T02:05:09.355Z,7.55
2023-01-06T02:07:39.379Z,8.50
2023-01-06T02:10:13.768Z,8.73
2023-01-06T02:12:42.985Z,6.72
2023-01-06T02:15:22.504Z,8.90
2023-01-06T02:18:23.566Z,8.15
2023-01-06T02:21:07.784Z,7.65
2023-01-06T02:24:11.035Z,9.18
2023-01-06T02:27:17.061Z,8.95
2023-01-06T02:30:21.896Z,8.18
2023-01-06T02:33:03.988Z,8.73
2023-01-06T02:35:47.498Z,8.30
2023-01-06T02:38:29.481Z,7.47
2023-01-06T02:41:11.928Z,8.30
2023-01-06T02:43:50.861Z,10.20
2023-01-06T02:46:29.129Z,9.88
2023-01-06T02:49:08.872Z,7.70
2023-01-06T02:51:45.714Z,8.82
2023-01-06T02:54:21.151Z,9.20
2023-01-06T02:56:53.476Z,8.80
2023-01-06T02:59:27.324Z,7.72
2023-01-06T03:01:57.180Z,8.40
2023-01-06T03:04:31.954Z,8.65
2023-01-06T03:07:03.499Z,7.20
2023-01-06T03:09:34.987Z,8.35
2023-01-06T03:12:08.553Z,6.75
2023-01-06T03:14:42.294Z,8.80
2023-01-06T03:17:10.430Z,7.07
2023-01-06T03:19:43.041Z,7.82
2023-01-06T03:22:12.231Z,7.07
2023-01-06T03:24:41.844Z,8.90
2023-01-06T03:27:10.553Z,9.63
2023-01-06T03:29:40.268Z,9.15
2023-01-06T03:32:16.211Z,6.53
2023-01-06T03:35:09.656Z,7.10
2023-01-06T03:37:47.967Z,7.05
2023-01-06T03:40:28.372Z,8.80
2023-01-06T03:43:16.457Z,5.80
2023-01-06T03:45:56.632Z,5.97
2023-01-06T03:48:34.881Z,6.75
2023-01-06T03:51:11.145Z,7.18
2023-01-06T03:53:44.406Z,6.22
2023-01-06T03:56:20.165Z,6.93
2023-01-06T03:58:51.901Z,6.97
2023-01-06T04:01:21.150Z,6.15
2023-01-06T04:03:52.730Z,6.82
2023-01-06T04:06:23.185Z,5.85
2023-01-06T04:08:51.503Z,6.45
2023-01-06T04:11:37.716Z,6.05
2023-01-06T04:14:05.877Z,4.65
2023-01-06T04:16:34.431Z,5.22
2023-01-06T04:19:02.576Z,4.22
2023-01-06T04:21:32.189Z,6.28
2023-01-06T04:24:00.349Z,6.18
2023-01-06T04:26:30.310Z,5.57
2023-01-06T04:28:58.746Z,4.18
2023-01-06T04:31:26.943Z,5.63
2023-01-06T04:33:55.189Z,5.30
2023-01-06T04:36:23.625Z,4.82
2023-01-06T04:38:53.249Z,5.05
2023-01-06T04:41:21.970Z,4.68
2023-01-06T04:43:50.640Z,4.05
2023-01-06T04:46:18.747Z,5.63
2023-01-06T04:48:47.043Z,5.95
2023-01-06T04:51:15.038Z,4.03
2023-01-06T04:53:43.452Z,4.10
2023-01-06T04:56:14.073Z,4.03
2023-01-06T04:58:42.080Z,4.20
2023-01-06T05:01:12.430Z,5.20
2023-01-06T05:03:41.260Z,3.85
2023-01-06T05:06:11.651Z,3.70
2023-01-06T05:08:40.742Z,3.85
2023-01-06T05:11:10.661Z,4.20
2023-01-06T05:13:40.683Z,3.55
2023-01-06T05:16:11.341Z,3.50
2023-01-06T05:18:40.739Z,4.00
2023-01-06T05:21:09.413Z,3.15
2023-01-06T05:23:38.694Z,3.55
2023-01-06T05:26:07.241Z,3.40
2023-01-06T05:28:35.497Z,3.53
2023-01-06T05:31:06.422Z,4.20
2023-01-06T05:33:35.951Z,4.25
2023-01-06T05:36:12.479Z,3.05
2023-01-06T05:38:40.713Z,3.60
2023-01-06T05:41:09.074Z,3.38
2023-01-06T05:43:38.661Z,2.58
2023-01-06T05:46:10.240Z,3.00
2023-01-06T05:48:40.681Z,4.40
2023-01-06T05:51:11.453Z,3.08
2023-01-06T05:53:41.788Z,3.28
2023-01-06T05:56:11.685Z,3.22
2023-01-06T05:58:41.154Z,3.63
2023-01-06T06:01:17.925Z,3.90
2023-01-06T06:03:46.354Z,3.28
2023-01-06T06:06:14.553Z,3.22
2023-01-06T06:08:42.881Z,2.45
2023-01-06T06:11:12.816Z,3.17
2023-01-06T06:13:46.311Z,3.72
2023-01-06T06:16:18.386Z,3.30
2023-01-06T06:18:50.957Z,3.22
2023-01-06T06:21:20.974Z,2.75
2023-01-06T06:23:49.604Z,3.65
2023-01-06T06:26:19.540Z,2.83
2023-01-06T06:28:47.660Z,3.35
2023-01-06T06:31:21.020Z,2.85
2023-01-06T06:33:52.117Z,2.92
2023-01-06T06:36:20.586Z,3.65
2023-01-06T06:38:50.263Z,4.10
2023-01-06T06:41:19.306Z,2.90
2023-01-06T06:43:49.047Z,2.72
2023-01-06T06:46:19.264Z,2.83
2023-01-06T06:48:47.554Z,3.67
2023-01-06T06:51:19.353Z,2.65
2023-01-06T06:53:48.130Z,2.25
2023-01-06T06:56:17.769Z,2.42
2023-01-06T06:58:48.096Z,2.70
2023-01-06T07:01:19.305Z,2.63
2023-01-06T07:03:47.964Z,2.40
2023-01-06T07:06:21.463Z,2.38
2023-01-06T07:08:50.601Z,4.55
2023-01-06T07:11:19.375Z,2.30
2023-01-06T07:13:48.194Z,2.22
2023-01-06T07:16:17.926Z,4.13
2023-01-06T07:19:00.283Z,2.00
2023-01-06T07:21:31.732Z,2.65
2023-01-06T07:24:03.481Z,2.35
2023-01-06T07:26:35.604Z,2.78
2023-01-06T07:29:08.898Z,2.13
2023-01-06T07:31:39.768Z,2.15
2023-01-06T07:34:15.388Z,2.30
2023-01-06T07:36:46.195Z,2.78
2023-01-06T07:39:16.705Z,2.20
2023-01-06T07:41:45.081Z,2.65
2023-01-06T07:44:15.651Z,2.38
2023-01-06T07:46:56.620Z,2.22
2023-01-06T07:49:29.498Z,2.97
2023-01-06T07:52:08.624Z,2.15
2023-01-06T07:54:51.574Z,2.20
2023-01-06T07:57:49.237Z,2.53
2023-01-06T08:00:19.466Z,2.15
2023-01-06T08:03:01.501Z,5.10
2023-01-06T08:05:44.181Z,3.22
2023-01-06T08:08:13.649Z,3.08
2023-01-06T08:10:43.979Z,2.15
2023-01-06T08:13:19.619Z,2.38
2023-01-06T08:15:54.941Z,2.55
2023-01-06T08:18:36.672Z,4.43
2023-01-06T08:21:10.482Z,3.20
2023-01-06T08:24:00.426Z,3.28
2023-01-06T08:26:32.074Z,2.40
2023-01-06T08:29:01.251Z,3.65
2023-01-06T08:31:30.665Z,2.38
2023-01-06T08:34:17.724Z,3.72
2023-01-06T08:36:58.014Z,3.05
2023-01-06T08:43:14.919Z,2.42
2023-01-06T08:45:50.425Z,3.08
2023-01-06T09:05:02.487Z,3.35
2023-01-06T09:08:09.170Z,2.90
2023-01-06T09:11:13.916Z,5.45
2023-01-06T09:16:30.645Z,4.28
2023-01-06T09:22:00.209Z,3.95
2023-01-06T09:24:29.451Z,2.90
2023-01-06T09:27:01.911Z,2.40
2023-01-06T09:29:30.432Z,3.50
2023-01-06T09:31:58.476Z,2.95
2023-01-06T09:34:26.728Z,3.50
2023-01-06T09:36:56.769Z,3.88
2023-01-06T09:39:28.196Z,2.20
2023-01-06T09:42:18.906Z,3.33
2023-01-06T09:44:51.920Z,2.65
2023-01-06T09:47:25.683Z,2.80
2023-01-06T09:49:57.434Z,2.63
2023-01-06T09:52:30.552Z,2.83
2023-01-06T09:55:02.299Z,2.65
2023-01-06T09:57:34.744Z,3.75
2023-01-06T10:00:06.339Z,3.13
2023-01-06T10:02:38.839Z,2.83
2023-01-06T10:05:20.937Z,2.35
2023-01-06T10:07:58.824Z,2.53
2023-01-06T10:30:22.110Z,2.50
2023-01-06T10:32:51.961Z,2.78
2023-01-06T10:35:23.836Z,2.58
2023-01-06T10:37:53.667Z,2.50
2023-01-06T10:40:25.640Z,2.25
2023-01-06T10:42:57.234Z,2.72
2023-01-06T10:45:30.113Z,3.33
2023-01-06T10:47:59.391Z,2.78
2023-01-06T10:50:28.292Z,4.13
2023-01-06T10:52:56.577Z,3.08
2023-01-06T10:55:35.642Z,3.60
2023-01-06T10:58:12.971Z,2.13
2023-01-06T11:00:57.496Z,2.20
2023-01-06T11:03:33.288Z,1.95
2023-01-06T11:06:06.260Z,2.30
2023-01-06T11:08:36.429Z,2.10
2023-01-06T11:11:26.733Z,1.90
2023-01-06T11:13:59.151Z,2.00
2023-01-06T11:16:31.563Z,3.35
2023-01-06T11:19:03.997Z,3.03
2023-01-06T11:21:41.495Z,2.63
2023-01-06T11:24:21.103Z,1.80
2023-01-06T11:26:53.984Z,2.42
2023-01-06T11:29:32.044Z,2.58
2023-01-06T11:32:06.403Z,4.07
2023-01-06T11:34:35.145Z,3.85
2023-01-06T11:37:03.500Z,2.20
2023-01-06T11:39:37.543Z,1.70
2023-01-06T11:42:12.298Z,1.70
2023-01-06T11:44:42.228Z,2.13
2023-01-06T11:47:16.404Z,1.80
2023-01-06T11:49:49.792Z,2.75
2023-01-06T11:52:24.478Z,1.75
2023-01-06T11:55:02.663Z,2.15
2023-01-06T11:57:41.439Z,2.90
2023-01-06T12:00:33.397Z,2.10
2023-01-06T12:03:12.650Z,1.88
2023-01-06T12:05:48.793Z,2.58
2023-01-06T12:08:21.681Z,1.98
2023-01-06T12:10:55.914Z,2.70
2023-01-06T12:13:25.152Z,2.75
2023-01-06T12:16:01.271Z,3.30
2023-01-06T12:18:34.372Z,2.33
2023-01-06T12:21:07.342Z,3.03
2023-01-06T12:23:39.570Z,1.95
2023-01-06T12:26:14.978Z,2.20
2023-01-06T12:28:48.576Z,1.88
2023-01-06T12:31:21.220Z,2.40
2023-01-06T12:33:56.182Z,2.08
2023-01-06T12:36:31.247Z,3.83
2023-01-06T12:39:02.933Z,2.88
2023-01-06T12:41:37.313Z,2.17
2023-01-06T12:44:16.916Z,2.08
2023-01-06T12:46:55.889Z,2.22
2023-01-06T12:49:34.290Z,2.47
2023-01-06T12:52:08.234Z,5.25
2023-01-06T12:54:37.225Z,2.75
2023-01-06T12:57:21.084Z,3.10
2023-01-06T13:00:07.737Z,3.88
2023-01-06T13:02:53.895Z,2.20
2023-01-06T13:05:37.164Z,3.03
2023-01-06T13:08:22.563Z,2.60
2023-01-06T13:10:57.605Z,2.75
2023-01-06T13:13:39.375Z,2.30
2023-01-06T13:16:18.342Z,2.42
2023-01-06T13:18:58.417Z,2.10
2023-01-06T13:21:29.352Z,3.03
2023-01-06T13:27:49.344Z,2.47
2023-01-06T13:30:35.918Z,4.70
2023-01-06T13:33:40.702Z,2.55
2023-01-06T13:36:34.870Z,2.25
2023-01-06T13:39:08.626Z,2.20
2023-01-06T13:41:38.732Z,2.65
2023-01-06T13:44:13.631Z,2.72
2023-01-06T13:46:42.755Z,2.40
2023-01-06T13:49:12.971Z,2.35
2023-01-06T13:51:44.384Z,2.33
2023-01-06T13:54:46.013Z,2.53
2023-01-06T13:57:38.210Z,2.33
2023-01-06T14:00:29.044Z,2.70
2023-01-06T14:03:27.672Z,2.60
2023-01-06T14:06:00.203Z,2.80
2023-01-06T14:08:41.012Z,2.67
2023-01-06T14:11:30.896Z,3.75
2023-01-06T14:14:03.677Z,2.90
2023-01-06T14:16:43.127Z,3.15
2023-01-06T14:19:19.019Z,3.42
2023-01-06T14:21:48.570Z,2.83
2023-01-06T14:24:28.949Z,2.60
2023-01-06T14:27:01.378Z,2.88
2023-01-06T14:30:03.828Z,2.85
2023-01-06T14:33:05.364Z,3.22
2023-01-06T14:35:37.495Z,3.22
2023-01-06T14:38:08.386Z,3.30
2023-01-06T14:40:40.437Z,3.10
2023-01-06T14:43:35.571Z,3.50
2023-01-06T14:46:26.452Z,2.90
2023-01-06T14:49:00.430Z,3.30
2023-01-06T14:51:30.611Z,3.00
2023-01-06T14:54:04.513Z,3.55
2023-01-06T14:56:36.106Z,6.18
2023-01-06T14:59:13.107Z,3.60
2023-01-06T15:01:58.245Z,3.47
2023-01-06T15:04:31.074Z,3.65
2023-01-06T15:07:17.986Z,5.15
2023-01-06T15:09:47.273Z,6.18
2023-01-06T15:12:26.520Z,5.38
2023-01-06T15:14:55.028Z,4.50
2023-01-06T15:17:24.917Z,3.88
2023-01-06T15:19:53.939Z,3.38
2023-01-06T15:22:24.611Z,4.72
2023-01-06T15:24:53.400Z,3.80
2023-01-06T15:27:22.708Z,3.70
2023-01-06T15:29:53.765Z,3.55
2023-01-06T15:32:25.736Z,4.95
2023-01-06T15:34:56.842Z,3.97
2023-01-06T15:37:27.434Z,3.92
2023-01-06T15:39:56.301Z,4.10
2023-01-06T15:42:26.155Z,3.90
2023-01-06T15:44:58.624Z,4.07
2023-01-06T15:47:34.513Z,3.97
2023-01-06T15:50:04.626Z,3.92
2023-01-06T15:52:35.571Z,3.70
2023-01-06T15:55:06.725Z,4.18
2023-01-06T15:57:38.567Z,3.70
2023-01-06T16:00:09.449Z,4.03
2023-01-06T16:02:39.247Z,3.97
2023-01-06T16:05:08.113Z,4.57
2023-01-06T16:07:41.237Z,4.10
2023-01-06T16:10:35.703Z,5.25
2023-01-06T16:13:28.300Z,4.20
2023-01-06T16:16:01.523Z,3.75
2023-01-06T16:18:33.254Z,3.85
2023-01-06T16:21:13.195Z,3.88
2023-01-06T16:23:41.772Z,3.97
2023-01-06T16:26:15.195Z,4.50
2023-01-06T16:28:47.985Z,4.05
2023-01-06T16:31:29.203Z,4.45
2023-01-06T16:34:16.354Z,4.68
2023-01-06T16:36:44.960Z,4.30
2023-01-06T16:39:15.533Z,4.57
2023-01-06T16:42:34.084Z,4.22
2023-01-06T16:45:05.448Z,4.95
2023-01-06T16:47:33.722Z,4.32
2023-01-06T16:50:15.803Z,4.57
2023-01-06T16:52:45.827Z,4.60
2023-01-06T16:55:15.792Z,5.03
2023-01-06T16:57:47.648Z,4.45
2023-01-06T17:00:18.315Z,5.30
2023-01-06T17:02:50.734Z,4.50
2023-01-06T17:05:28.420Z,5.03
2023-01-06T17:08:09.230Z,4.78
2023-01-06T17:10:37.607Z,6.30
2023-01-06T17:13:24.555Z,4.60
2023-01-06T17:15:57.971Z,4.68
2023-01-06T17:18:27.815Z,4.68
2023-01-06T17:21:02.279Z,4.80
2023-01-06T17:23:38.944Z,4.88
2023-01-06T17:26:17.003Z,5.03
2023-01-06T17:28:48.431Z,4.88
2023-01-06T17:31:20.821Z,5.38
2023-01-06T17:33:55.547Z,4.90
2023-01-06T17:40:03.432Z,4.93
2023-01-06T17:42:40.172Z,4.90
2023-01-06T17:45:31.773Z,4.95
2023-01-06T17:48:24.402Z,5.35
2023-01-06T17:51:11.952Z,4.97
2023-01-06T17:58:15.162Z,5.50
2023-01-06T18:00:49.144Z,4.80
2023-01-06T18:03:20.695Z,5.22
2023-01-06T18:06:08.149Z,5.53
2023-01-06T18:08:46.860Z,5.00
2023-01-06T18:11:49.778Z,4.93
2023-01-06T18:14:49.309Z,5.20
2023-01-06T18:17:48.458Z,4.43
2023-01-06T18:20:22.680Z,4.80
2023-01-06T18:23:24.768Z,5.72
2023-01-06T18:25:54.002Z,5.40
2023-01-06T18:28:24.310Z,5.40
2023-01-06T18:30:56.231Z,5.55
2023-01-06T18:33:44.777Z,4.68
2023-01-06T18:36:14.616Z,5.60
2023-01-06T18:38:44.832Z,6.65
2023-01-06T18:41:14.283Z,5.72
2023-01-06T18:43:45.391Z,5.80
2023-01-06T18:46:40.732Z,5.40
2023-01-06T18:49:32.423Z,5.80
2023-01-06T18:52:07.216Z,6.03
2023-01-06T19:12:49.437Z,8.02
2023-01-06T19:15:22.998Z,8.55
2023-01-06T19:23:40.751Z,8.55
2023-01-06T19:26:23.055Z,7.45
2023-01-06T19:28:59.352Z,7.45
2023-01-06T19:31:33.709Z,8.27
2023-01-06T19:34:06.382Z,7.53
2023-01-06T19:36:45.936Z,8.10
2023-01-06T19:39:32.619Z,8.25
2023-01-06T19:42:13.061Z,8.00
2023-01-06T19:44:42.350Z,8.73
2023-01-06T19:47:19.711Z,7.75
2023-01-06T19:49:53.380Z,7.60
2023-01-06T19:52:44.424Z,7.57
2023-01-06T19:55:26.999Z,8.50
2023-01-06T19:57:59.066Z,8.05
2023-01-06T20:00:30.949Z,8.18
2023-01-06T20:03:03.637Z,7.82
2023-01-06T20:05:34.456Z,7.40
2023-01-06T20:08:02.785Z,7.35
2023-01-06T20:10:36.319Z,6.65
2023-01-06T20:13:08.107Z,7.10
2023-01-06T20:15:36.349Z,7.53
2023-01-06T20:18:05.045Z,7.00
2023-01-06T20:20:34.497Z,7.45
2023-01-06T20:23:03.622Z,7.07
2023-01-06T20:25:36.765Z,7.45
2023-01-06T20:28:10.497Z,6.55
2023-01-06T20:30:38.695Z,7.15
2023-01-06T20:33:07.145Z,6.85
2023-01-06T20:35:36.098Z,6.97
2023-01-06T20:38:05.740Z,7.55
2023-01-06T20:40:35.851Z,6.65
2023-01-06T20:43:04.133Z,6.30
2023-01-06T20:45:35.777Z,7.45
2023-01-06T20:48:04.353Z,6.38
2023-01-06T20:50:35.113Z,6.38
2023-01-06T20:53:03.501Z,6.40
2023-01-06T20:55:32.135Z,6.43
2023-01-06T20:58:01.753Z,6.57
2023-01-06T21:00:31.338Z,6.13
2023-01-06T21:03:01.862Z,6.40
2023-01-06T21:05:30.970Z,6.63
2023-01-06T21:08:00.144Z,6.13
2023-01-06T21:10:32.497Z,5.90
2023-01-06T21:13:03.167Z,6.38
2023-01-06T21:15:36.775Z,6.20
2023-01-06T21:18:05.755Z,5.90
2023-01-06T21:20:34.363Z,6.20
2023-01-06T21:23:05.058Z,6.40
2023-01-06T21:25:35.046Z,5.63
2023-01-06T21:28:05.328Z,6.10
2023-01-06T21:30:33.989Z,6.30
2023-01-06T21:33:02.208Z,5.75
2023-01-06T21:35:35.335Z,5.78
2023-01-06T21:38:05.270Z,5.85
2023-01-06T21:40:34.834Z,5.45
2023-01-06T21:43:09.357Z,6.00
2023-01-06T21:45:38.122Z,5.85
2023-01-06T21:48:08.908Z,5.55
2023-01-06T21:50:40.240Z,6.93
2023-01-06T21:53:11.531Z,5.30
2023-01-06T21:55:41.755Z,5.45
2023-01-06T21:58:11.964Z,5.80
2023-01-06T22:00:40.283Z,5.63
2023-01-06T22:03:08.491Z,6.65
2023-01-06T22:05:36.815Z,6.85
2023-01-06T22:08:06.259Z,6.15
2023-01-06T22:10:34.578Z,6.32
2023-01-06T22:13:03.855Z,6.15
2023-01-06T22:15:34.806Z,5.95
2023-01-06T22:18:03.350Z,6.00
2023-01-06T22:20:33.368Z,4.75
2023-01-06T22:23:05.146Z,6.47
2023-01-06T22:25:33.227Z,6.03
2023-01-06T22:28:03.277Z,5.85
2023-01-06T22:30:35.975Z,4.97
2023-01-06T22:33:04.872Z,5.20
2023-01-06T22:35:33.097Z,5.32
2023-01-06T22:38:01.338Z,5.18
2023-01-06T22:40:29.562Z,4.85
2023-01-06T22:42:58.080Z,4.80
2023-01-06T22:45:26.411Z,4.90
2023-01-06T22:47:56.301Z,5.05
2023-01-06T22:50:24.888Z,5.18
2023-01-06T22:52:53.413Z,5.03
2023-01-06T22:55:21.824Z,4.72
2023-01-06T22:57:49.880Z,4.93
2023-01-06T23:00:20.469Z,4.90
2023-01-06T23:02:49.002Z,4.55
2023-01-06T23:05:18.855Z,4.32
2023-01-06T23:07:47.178Z,4.53
2023-01-06T23:10:16.128Z,6.05
2023-01-06T23:12:44.946Z,5.55
2023-01-06T23:15:13.722Z,4.82
2023-01-06T23:17:41.941Z,4.95
2023-01-06T23:20:11.208Z,4.70
2023-01-06T23:22:41.121Z,4.82
2023-01-06T23:25:09.730Z,4.68
2023-01-06T23:27:38.814Z,4.75
2023-01-06T23:30:08.255Z,5.35
2023-01-06T23:32:36.435Z,4.30
2023-01-06T23:35:05.026Z,4.28
2023-01-06T23:37:33.988Z,4.28
2023-01-06T23:40:03.485Z,4.10
2023-01-06T23:42:34.457Z,4.30
2023-01-06T23:45:06.009Z,4.07
2023-01-06T23:47:34.400Z,4.50
2023-01-06T23:50:02.511Z,3.80
2023-01-06T23:52:30.812Z,4.03
2023-01-06T23:54:59.110Z,4.07
2023-01-06T23:57:29.397Z,4.00
2023-01-06T23:59:57.527Z,4.20
